sensor_id;sensor_type;location;lat;lon;timestamp;P1;durP1;ratioP1;P2;durP2;ratioP2
55700;SDS011;41604;43.142;20.512;2024-01-30T00:01:58;108.28;;;69.65;;
55700;SDS011;41604;43.142;20.512;2024-01-30T00:04:24;115.32;;;72.43;;
55700;SDS011;41604;43.142;20.512;2024-01-30T00:06:50;117.50;;;75.53;;
55700;SDS011;41604;43.142;20.512;2024-01-30T00:09:18;102.88;;;62.47;;
55700;SDS011;41604;43.142;20.512;2024-01-30T00:11:44;132.73;;;81.10;;
55700;SDS011;41604;43.142;20.512;2024-01-30T00:14:10;86.32;;;51.63;;
55700;SDS011;41604;43.142;20.512;2024-01-30T00:16:36;88.90;;;50.95;;
55700;SDS011;41604;43.142;20.512;2024-01-30T00:19:02;77.32;;;48.10;;
55700;SDS011;41604;43.142;20.512;2024-01-30T00:21:28;83.80;;;50.03;;
55700;SDS011;41604;43.142;20.512;2024-01-30T00:23:54;79.25;;;46.17;;
55700;SDS011;41604;43.142;20.512;2024-01-30T00:26:20;78.53;;;45.05;;
55700;SDS011;41604;43.142;20.512;2024-01-30T00:28:46;69.68;;;43.20;;
55700;SDS011;41604;43.142;20.512;2024-01-30T00:31:11;68.68;;;43.00;;
55700;SDS011;41604;43.142;20.512;2024-01-30T00:33:38;60.50;;;36.97;;
55700;SDS011;41604;43.142;20.512;2024-01-30T00:36:05;52.28;;;30.55;;
55700;SDS011;41604;43.142;20.512;2024-01-30T00:38:31;57.47;;;33.35;;
55700;SDS011;41604;43.142;20.512;2024-01-30T00:40:58;59.88;;;35.05;;
55700;SDS011;41604;43.142;20.512;2024-01-30T00:43:23;53.30;;;31.63;;
55700;SDS011;41604;43.142;20.512;2024-01-30T00:45:52;51.78;;;31.45;;
55700;SDS011;41604;43.142;20.512;2024-01-30T00:48:19;47.63;;;27.73;;
55700;SDS011;41604;43.142;20.512;2024-01-30T00:50:45;40.72;;;24.00;;
55700;SDS011;41604;43.142;20.512;2024-01-30T00:53:11;42.92;;;25.88;;
55700;SDS011;41604;43.142;20.512;2024-01-30T00:55:36;50.85;;;29.55;;
55700;SDS011;41604;43.142;20.512;2024-01-30T00:58:03;63.25;;;35.90;;
55700;SDS011;41604;43.142;20.512;2024-01-30T01:00:29;54.10;;;32.13;;
55700;SDS011;41604;43.142;20.512;2024-01-30T01:02:57;56.47;;;33.70;;
55700;SDS011;41604;43.142;20.512;2024-01-30T01:05:23;45.75;;;28.27;;
55700;SDS011;41604;43.142;20.512;2024-01-30T01:07:49;44.65;;;27.15;;
55700;SDS011;41604;43.142;20.512;2024-01-30T01:10:15;42.25;;;24.95;;
55700;SDS011;41604;43.142;20.512;2024-01-30T01:12:44;44.35;;;28.58;;
55700;SDS011;41604;43.142;20.512;2024-01-30T01:15:10;39.95;;;23.65;;
55700;SDS011;41604;43.142;20.512;2024-01-30T01:17:38;35.20;;;22.65;;
55700;SDS011;41604;43.142;20.512;2024-01-30T01:20:05;39.20;;;24.88;;
55700;SDS011;41604;43.142;20.512;2024-01-30T01:22:32;39.35;;;23.05;;
55700;SDS011;41604;43.142;20.512;2024-01-30T01:24:58;39.78;;;23.48;;
55700;SDS011;41604;43.142;20.512;2024-01-30T01:27:24;39.20;;;23.92;;
55700;SDS011;41604;43.142;20.512;2024-01-30T01:29:51;37.55;;;22.17;;
55700;SDS011;41604;43.142;20.512;2024-01-30T01:32:17;38.22;;;25.08;;
55700;SDS011;41604;43.142;20.512;2024-01-30T01:34:43;36.22;;;22.90;;
55700;SDS011;41604;43.142;20.512;2024-01-30T01:37:09;34.97;;;22.08;;
55700;SDS011;41604;43.142;20.512;2024-01-30T01:39:34;38.08;;;22.73;;
55700;SDS011;41604;43.142;20.512;2024-01-30T01:42:00;35.55;;;21.52;;
55700;SDS011;41604;43.142;20.512;2024-01-30T01:44:26;34.28;;;21.20;;
55700;SDS011;41604;43.142;20.512;2024-01-30T01:46:52;35.97;;;21.88;;
55700;SDS011;41604;43.142;20.512;2024-01-30T01:49:20;27.27;;;17.80;;
55700;SDS011;41604;43.142;20.512;2024-01-30T01:51:48;63.00;;;41.40;;
55700;SDS011;41604;43.142;20.512;2024-01-30T01:54:14;39.13;;;25.42;;
55700;SDS011;41604;43.142;20.512;2024-01-30T01:56:41;35.22;;;23.00;;
55700;SDS011;41604;43.142;20.512;2024-01-30T01:59:08;41.25;;;27.40;;
55700;SDS011;41604;43.142;20.512;2024-01-30T02:01:37;38.85;;;23.02;;
55700;SDS011;41604;43.142;20.512;2024-01-30T02:04:06;38.92;;;25.15;;
55700;SDS011;41604;43.142;20.512;2024-01-30T02:06:33;45.85;;;27.67;;
55700;SDS011;41604;43.142;20.512;2024-01-30T02:09:02;39.10;;;24.20;;
55700;SDS011;41604;43.142;20.512;2024-01-30T02:11:29;43.67;;;27.33;;
55700;SDS011;41604;43.142;20.512;2024-01-30T02:13:56;43.92;;;25.92;;
55700;SDS011;41604;43.142;20.512;2024-01-30T02:16:22;37.33;;;23.85;;
55700;SDS011;41604;43.142;20.512;2024-01-30T02:18:48;41.70;;;25.02;;
55700;SDS011;41604;43.142;20.512;2024-01-30T02:21:15;34.42;;;21.40;;
55700;SDS011;41604;43.142;20.512;2024-01-30T02:23:41;32.53;;;19.77;;
55700;SDS011;41604;43.142;20.512;2024-01-30T02:26:09;32.78;;;20.23;;
55700;SDS011;41604;43.142;20.512;2024-01-30T02:28:35;35.75;;;20.98;;
55700;SDS011;41604;43.142;20.512;2024-01-30T02:31:00;42.67;;;25.52;;
55700;SDS011;41604;43.142;20.512;2024-01-30T02:33:26;57.15;;;32.95;;
55700;SDS011;41604;43.142;20.512;2024-01-30T02:35:52;44.55;;;28.10;;
55700;SDS011;41604;43.142;20.512;2024-01-30T02:38:18;44.55;;;27.90;;
55700;SDS011;41604;43.142;20.512;2024-01-30T02:40:44;41.17;;;24.60;;
55700;SDS011;41604;43.142;20.512;2024-01-30T02:43:09;47.63;;;28.90;;
55700;SDS011;41604;43.142;20.512;2024-01-30T02:45:35;46.38;;;26.92;;
55700;SDS011;41604;43.142;20.512;2024-01-30T02:48:01;55.97;;;33.95;;
55700;SDS011;41604;43.142;20.512;2024-01-30T02:50:27;62.65;;;35.50;;
55700;SDS011;41604;43.142;20.512;2024-01-30T02:52:53;59.40;;;35.38;;
55700;SDS011;41604;43.142;20.512;2024-01-30T02:55:18;52.63;;;32.90;;
55700;SDS011;41604;43.142;20.512;2024-01-30T02:57:44;61.05;;;35.55;;
55700;SDS011;41604;43.142;20.512;2024-01-30T03:00:11;54.42;;;32.95;;
55700;SDS011;41604;43.142;20.512;2024-01-30T03:02:37;55.10;;;32.72;;
55700;SDS011;41604;43.142;20.512;2024-01-30T03:05:04;53.40;;;33.30;;
55700;SDS011;41604;43.142;20.512;2024-01-30T03:07:30;53.42;;;32.38;;
55700;SDS011;41604;43.142;20.512;2024-01-30T03:09:56;57.00;;;34.65;;
55700;SDS011;41604;43.142;20.512;2024-01-30T03:12:22;65.30;;;41.10;;
55700;SDS011;41604;43.142;20.512;2024-01-30T03:14:48;84.25;;;49.40;;
55700;SDS011;41604;43.142;20.512;2024-01-30T03:17:14;81.78;;;48.05;;
55700;SDS011;41604;43.142;20.512;2024-01-30T03:19:40;87.40;;;52.33;;
55700;SDS011;41604;43.142;20.512;2024-01-30T03:22:06;77.95;;;45.85;;
55700;SDS011;41604;43.142;20.512;2024-01-30T03:24:32;79.68;;;49.25;;
55700;SDS011;41604;43.142;20.512;2024-01-30T03:26:58;84.38;;;50.00;;
55700;SDS011;41604;43.142;20.512;2024-01-30T03:29:23;76.95;;;45.70;;
55700;SDS011;41604;43.142;20.512;2024-01-30T03:31:50;67.03;;;39.90;;
55700;SDS011;41604;43.142;20.512;2024-01-30T03:34:16;61.90;;;37.10;;
55700;SDS011;41604;43.142;20.512;2024-01-30T03:36:42;53.42;;;31.70;;
55700;SDS011;41604;43.142;20.512;2024-01-30T03:39:07;51.95;;;29.85;;
55700;SDS011;41604;43.142;20.512;2024-01-30T03:41:33;49.30;;;30.77;;
55700;SDS011;41604;43.142;20.512;2024-01-30T03:43:59;61.03;;;36.60;;
55700;SDS011;41604;43.142;20.512;2024-01-30T03:46:25;56.78;;;35.28;;
55700;SDS011;41604;43.142;20.512;2024-01-30T03:48:50;53.35;;;32.25;;
55700;SDS011;41604;43.142;20.512;2024-01-30T03:51:16;52.42;;;32.10;;
55700;SDS011;41604;43.142;20.512;2024-01-30T03:53:42;58.67;;;33.78;;
55700;SDS011;41604;43.142;20.512;2024-01-30T03:56:08;55.13;;;32.47;;
55700;SDS011;41604;43.142;20.512;2024-01-30T03:58:34;64.28;;;37.10;;
55700;SDS011;41604;43.142;20.512;2024-01-30T04:01:01;80.88;;;51.45;;
55700;SDS011;41604;43.142;20.512;2024-01-30T04:03:27;61.47;;;39.05;;
55700;SDS011;41604;43.142;20.512;2024-01-30T04:05:52;56.85;;;33.95;;
55700;SDS011;41604;43.142;20.512;2024-01-30T04:08:19;50.65;;;31.80;;
55700;SDS011;41604;43.142;20.512;2024-01-30T04:10:45;48.88;;;32.40;;
55700;SDS011;41604;43.142;20.512;2024-01-30T04:13:11;58.63;;;35.38;;
55700;SDS011;41604;43.142;20.512;2024-01-30T04:15:37;61.65;;;37.75;;
55700;SDS011;41604;43.142;20.512;2024-01-30T04:18:03;62.80;;;37.20;;
55700;SDS011;41604;43.142;20.512;2024-01-30T04:20:29;62.28;;;35.50;;
55700;SDS011;41604;43.142;20.512;2024-01-30T04:22:55;49.80;;;32.65;;
55700;SDS011;41604;43.142;20.512;2024-01-30T04:25:21;53.08;;;32.47;;
55700;SDS011;41604;43.142;20.512;2024-01-30T04:27:47;59.00;;;33.58;;
55700;SDS011;41604;43.142;20.512;2024-01-30T04:30:12;56.20;;;35.00;;
55700;SDS011;41604;43.142;20.512;2024-01-30T04:32:38;60.90;;;34.95;;
55700;SDS011;41604;43.142;20.512;2024-01-30T04:35:04;59.10;;;35.28;;
55700;SDS011;41604;43.142;20.512;2024-01-30T04:37:30;63.33;;;36.95;;
55700;SDS011;41604;43.142;20.512;2024-01-30T04:39:56;62.63;;;35.45;;
55700;SDS011;41604;43.142;20.512;2024-01-30T04:42:22;58.72;;;35.80;;
55700;SDS011;41604;43.142;20.512;2024-01-30T04:44:48;65.65;;;37.30;;
55700;SDS011;41604;43.142;20.512;2024-01-30T04:47:14;63.75;;;36.92;;
55700;SDS011;41604;43.142;20.512;2024-01-30T04:49:40;61.35;;;36.80;;
55700;SDS011;41604;43.142;20.512;2024-01-30T04:52:07;62.95;;;39.83;;
55700;SDS011;41604;43.142;20.512;2024-01-30T04:54:33;64.80;;;39.40;;
55700;SDS011;41604;43.142;20.512;2024-01-30T04:56:59;67.53;;;39.20;;
55700;SDS011;41604;43.142;20.512;2024-01-30T04:59:25;59.58;;;36.28;;
55700;SDS011;41604;43.142;20.512;2024-01-30T05:01:51;75.47;;;42.88;;
55700;SDS011;41604;43.142;20.512;2024-01-30T05:04:17;57.70;;;37.25;;
55700;SDS011;41604;43.142;20.512;2024-01-30T05:06:43;60.20;;;36.90;;
55700;SDS011;41604;43.142;20.512;2024-01-30T05:09:09;58.47;;;36.15;;
55700;SDS011;41604;43.142;20.512;2024-01-30T05:11:38;76.47;;;44.60;;
55700;SDS011;41604;43.142;20.512;2024-01-30T05:14:05;71.07;;;43.58;;
55700;SDS011;41604;43.142;20.512;2024-01-30T05:16:31;68.88;;;37.03;;
55700;SDS011;41604;43.142;20.512;2024-01-30T05:18:57;53.58;;;33.28;;
55700;SDS011;41604;43.142;20.512;2024-01-30T05:21:23;57.08;;;36.35;;
55700;SDS011;41604;43.142;20.512;2024-01-30T05:23:49;92.68;;;53.95;;
55700;SDS011;41604;43.142;20.512;2024-01-30T05:26:15;98.88;;;52.75;;
55700;SDS011;41604;43.142;20.512;2024-01-30T05:28:41;86.07;;;47.08;;
55700;SDS011;41604;43.142;20.512;2024-01-30T05:31:07;74.57;;;41.35;;
55700;SDS011;41604;43.142;20.512;2024-01-30T05:33:33;74.93;;;42.72;;
55700;SDS011;41604;43.142;20.512;2024-01-30T05:35:59;74.10;;;41.45;;
55700;SDS011;41604;43.142;20.512;2024-01-30T05:38:25;56.95;;;34.92;;
55700;SDS011;41604;43.142;20.512;2024-01-30T05:40:50;65.50;;;38.10;;
55700;SDS011;41604;43.142;20.512;2024-01-30T05:43:16;65.65;;;36.80;;
55700;SDS011;41604;43.142;20.512;2024-01-30T05:45:42;110.18;;;68.38;;
55700;SDS011;41604;43.142;20.512;2024-01-30T05:48:08;145.38;;;82.15;;
55700;SDS011;41604;43.142;20.512;2024-01-30T05:50:34;189.18;;;93.88;;
55700;SDS011;41604;43.142;20.512;2024-01-30T05:52:59;295.48;;;144.27;;
55700;SDS011;41604;43.142;20.512;2024-01-30T05:55:25;122.80;;;66.85;;
55700;SDS011;41604;43.142;20.512;2024-01-30T05:57:51;89.18;;;53.10;;
55700;SDS011;41604;43.142;20.512;2024-01-30T06:00:17;90.88;;;53.33;;
55700;SDS011;41604;43.142;20.512;2024-01-30T06:02:44;102.25;;;59.08;;
55700;SDS011;41604;43.142;20.512;2024-01-30T06:05:18;104.00;;;57.17;;
55700;SDS011;41604;43.142;20.512;2024-01-30T06:07:44;92.13;;;52.40;;
55700;SDS011;41604;43.142;20.512;2024-01-30T06:10:10;97.40;;;53.88;;
55700;SDS011;41604;43.142;20.512;2024-01-30T06:12:37;79.05;;;44.92;;
55700;SDS011;41604;43.142;20.512;2024-01-30T06:15:03;74.25;;;44.22;;
55700;SDS011;41604;43.142;20.512;2024-01-30T06:17:29;72.78;;;42.40;;
55700;SDS011;41604;43.142;20.512;2024-01-30T06:19:55;277.48;;;114.43;;
55700;SDS011;41604;43.142;20.512;2024-01-30T06:22:21;156.90;;;74.07;;
55700;SDS011;41604;43.142;20.512;2024-01-30T06:24:47;92.72;;;47.83;;
55700;SDS011;41604;43.142;20.512;2024-01-30T06:27:14;94.53;;;54.70;;
55700;SDS011;41604;43.142;20.512;2024-01-30T06:29:40;90.88;;;55.55;;
55700;SDS011;41604;43.142;20.512;2024-01-30T06:32:07;88.63;;;54.58;;
55700;SDS011;41604;43.142;20.512;2024-01-30T06:34:33;70.47;;;42.47;;
55700;SDS011;41604;43.142;20.512;2024-01-30T06:36:59;91.55;;;55.90;;
55700;SDS011;41604;43.142;20.512;2024-01-30T06:39:25;109.15;;;66.15;;
55700;SDS011;41604;43.142;20.512;2024-01-30T06:41:51;133.38;;;81.03;;
55700;SDS011;41604;43.142;20.512;2024-01-30T06:44:17;113.80;;;67.07;;
55700;SDS011;41604;43.142;20.512;2024-01-30T06:46:43;95.70;;;55.78;;
55700;SDS011;41604;43.142;20.512;2024-01-30T06:49:09;67.70;;;39.45;;
55700;SDS011;41604;43.142;20.512;2024-01-30T06:51:34;82.28;;;46.75;;
55700;SDS011;41604;43.142;20.512;2024-01-30T06:54:00;77.35;;;47.05;;
55700;SDS011;41604;43.142;20.512;2024-01-30T06:56:26;41.85;;;24.00;;
55700;SDS011;41604;43.142;20.512;2024-01-30T06:58:52;67.10;;;40.92;;
55700;SDS011;41604;43.142;20.512;2024-01-30T07:01:18;96.15;;;58.75;;
55700;SDS011;41604;43.142;20.512;2024-01-30T07:03:44;89.43;;;53.25;;
55700;SDS011;41604;43.142;20.512;2024-01-30T07:06:09;31.30;;;18.52;;
55700;SDS011;41604;43.142;20.512;2024-01-30T07:08:38;40.92;;;25.08;;
55700;SDS011;41604;43.142;20.512;2024-01-30T07:11:04;41.90;;;25.13;;
55700;SDS011;41604;43.142;20.512;2024-01-30T07:13:31;52.83;;;32.70;;
55700;SDS011;41604;43.142;20.512;2024-01-30T07:15:57;104.90;;;71.55;;
55700;SDS011;41604;43.142;20.512;2024-01-30T07:18:23;90.22;;;58.60;;
55700;SDS011;41604;43.142;20.512;2024-01-30T07:20:49;69.90;;;47.60;;
55700;SDS011;41604;43.142;20.512;2024-01-30T07:23:15;67.38;;;43.33;;
55700;SDS011;41604;43.142;20.512;2024-01-30T07:25:45;133.80;;;100.43;;
55700;SDS011;41604;43.142;20.512;2024-01-30T07:28:14;125.13;;;90.03;;
55700;SDS011;41604;43.142;20.512;2024-01-30T07:30:43;115.10;;;76.47;;
55700;SDS011;41604;43.142;20.512;2024-01-30T07:33:09;133.43;;;91.60;;
55700;SDS011;41604;43.142;20.512;2024-01-30T07:35:36;119.10;;;78.03;;
55700;SDS011;41604;43.142;20.512;2024-01-30T07:38:02;198.55;;;132.50;;
55700;SDS011;41604;43.142;20.512;2024-01-30T07:40:28;186.57;;;124.72;;
55700;SDS011;41604;43.142;20.512;2024-01-30T07:42:55;373.75;;;244.18;;
55700;SDS011;41604;43.142;20.512;2024-01-30T07:45:21;504.65;;;346.13;;
55700;SDS011;41604;43.142;20.512;2024-01-30T07:47:49;295.75;;;201.88;;
55700;SDS011;41604;43.142;20.512;2024-01-30T07:50:15;226.10;;;148.60;;
55700;SDS011;41604;43.142;20.512;2024-01-30T07:52:42;222.75;;;149.82;;
55700;SDS011;41604;43.142;20.512;2024-01-30T07:55:08;142.73;;;98.03;;
55700;SDS011;41604;43.142;20.512;2024-01-30T07:57:34;128.98;;;87.40;;
55700;SDS011;41604;43.142;20.512;2024-01-30T08:00:00;209.48;;;129.32;;
55700;SDS011;41604;43.142;20.512;2024-01-30T08:02:27;147.80;;;99.53;;
55700;SDS011;41604;43.142;20.512;2024-01-30T08:04:53;157.02;;;102.10;;
55700;SDS011;41604;43.142;20.512;2024-01-30T08:07:19;162.60;;;89.50;;
55700;SDS011;41604;43.142;20.512;2024-01-30T08:09:47;131.23;;;79.53;;
55700;SDS011;41604;43.142;20.512;2024-01-30T08:12:13;103.25;;;66.50;;
55700;SDS011;41604;43.142;20.512;2024-01-30T08:14:39;86.95;;;56.10;;
55700;SDS011;41604;43.142;20.512;2024-01-30T08:17:06;78.75;;;49.25;;
55700;SDS011;41604;43.142;20.512;2024-01-30T08:19:32;81.65;;;50.55;;
55700;SDS011;41604;43.142;20.512;2024-01-30T08:21:58;76.50;;;51.53;;
55700;SDS011;41604;43.142;20.512;2024-01-30T08:24:25;78.95;;;49.63;;
55700;SDS011;41604;43.142;20.512;2024-01-30T08:26:51;73.90;;;47.08;;
55700;SDS011;41604;43.142;20.512;2024-01-30T08:29:17;72.45;;;45.97;;
55700;SDS011;41604;43.142;20.512;2024-01-30T08:31:43;70.43;;;46.28;;
55700;SDS011;41604;43.142;20.512;2024-01-30T08:34:11;69.97;;;47.00;;
55700;SDS011;41604;43.142;20.512;2024-01-30T08:36:37;80.65;;;53.20;;
55700;SDS011;41604;43.142;20.512;2024-01-30T08:39:03;56.60;;;39.28;;
55700;SDS011;41604;43.142;20.512;2024-01-30T08:41:30;51.22;;;33.75;;
55700;SDS011;41604;43.142;20.512;2024-01-30T08:43:56;44.80;;;31.35;;
55700;SDS011;41604;43.142;20.512;2024-01-30T08:46:22;44.33;;;31.75;;
55700;SDS011;41604;43.142;20.512;2024-01-30T08:48:48;49.70;;;33.78;;
55700;SDS011;41604;43.142;20.512;2024-01-30T08:51:14;67.05;;;37.53;;
55700;SDS011;41604;43.142;20.512;2024-01-30T08:53:40;76.75;;;47.63;;
55700;SDS011;41604;43.142;20.512;2024-01-30T08:56:07;67.25;;;44.38;;
55700;SDS011;41604;43.142;20.512;2024-01-30T08:58:33;67.20;;;42.67;;
55700;SDS011;41604;43.142;20.512;2024-01-30T09:00:59;67.63;;;43.40;;
55700;SDS011;41604;43.142;20.512;2024-01-30T09:03:25;72.90;;;50.50;;
55700;SDS011;41604;43.142;20.512;2024-01-30T09:05:51;55.90;;;36.63;;
55700;SDS011;41604;43.142;20.512;2024-01-30T09:08:17;60.08;;;38.60;;
55700;SDS011;41604;43.142;20.512;2024-01-30T09:10:43;68.18;;;48.40;;
55700;SDS011;41604;43.142;20.512;2024-01-30T09:13:09;52.00;;;32.42;;
55700;SDS011;41604;43.142;20.512;2024-01-30T09:15:35;40.70;;;25.95;;
55700;SDS011;41604;43.142;20.512;2024-01-30T09:18:01;36.40;;;21.95;;
55700;SDS011;41604;43.142;20.512;2024-01-30T09:20:27;21.83;;;14.32;;
55700;SDS011;41604;43.142;20.512;2024-01-30T09:22:53;17.88;;;11.60;;
55700;SDS011;41604;43.142;20.512;2024-01-30T09:25:19;22.23;;;15.77;;
55700;SDS011;41604;43.142;20.512;2024-01-30T09:27:44;14.93;;;9.48;;
55700;SDS011;41604;43.142;20.512;2024-01-30T09:30:10;10.30;;;7.53;;
55700;SDS011;41604;43.142;20.512;2024-01-30T09:32:36;10.48;;;7.28;;
55700;SDS011;41604;43.142;20.512;2024-01-30T09:35:02;17.73;;;7.55;;
55700;SDS011;41604;43.142;20.512;2024-01-30T09:37:28;13.45;;;8.35;;
55700;SDS011;41604;43.142;20.512;2024-01-30T09:39:54;19.73;;;11.63;;
55700;SDS011;41604;43.142;20.512;2024-01-30T09:42:35;13.60;;;9.45;;
55700;SDS011;41604;43.142;20.512;2024-01-30T09:45:05;13.55;;;8.75;;
55700;SDS011;41604;43.142;20.512;2024-01-30T09:47:31;16.65;;;11.05;;
55700;SDS011;41604;43.142;20.512;2024-01-30T09:50:05;15.55;;;10.77;;
55700;SDS011;41604;43.142;20.512;2024-01-30T09:52:31;14.48;;;9.70;;
55700;SDS011;41604;43.142;20.512;2024-01-30T09:54:59;14.57;;;10.70;;
55700;SDS011;41604;43.142;20.512;2024-01-30T09:57:26;15.25;;;10.93;;
55700;SDS011;41604;43.142;20.512;2024-01-30T09:59:52;16.15;;;11.07;;
55700;SDS011;41604;43.142;20.512;2024-01-30T10:02:19;12.43;;;8.52;;
55700;SDS011;41604;43.142;20.512;2024-01-30T10:04:48;13.57;;;9.02;;
55700;SDS011;41604;43.142;20.512;2024-01-30T10:07:15;12.77;;;8.20;;
55700;SDS011;41604;43.142;20.512;2024-01-30T10:09:41;10.30;;;7.30;;
55700;SDS011;41604;43.142;20.512;2024-01-30T10:12:08;11.63;;;7.55;;
55700;SDS011;41604;43.142;20.512;2024-01-30T10:14:37;13.27;;;7.82;;
55700;SDS011;41604;43.142;20.512;2024-01-30T10:17:09;13.20;;;8.77;;
55700;SDS011;41604;43.142;20.512;2024-01-30T10:19:35;15.80;;;10.32;;
55700;SDS011;41604;43.142;20.512;2024-01-30T10:22:03;17.63;;;10.45;;
55700;SDS011;41604;43.142;20.512;2024-01-30T10:24:29;14.40;;;9.88;;
55700;SDS011;41604;43.142;20.512;2024-01-30T10:26:55;18.42;;;10.02;;
55700;SDS011;41604;43.142;20.512;2024-01-30T10:29:21;12.30;;;8.63;;
55700;SDS011;41604;43.142;20.512;2024-01-30T10:32:00;15.40;;;10.25;;
55700;SDS011;41604;43.142;20.512;2024-01-30T10:34:27;14.02;;;9.90;;
55700;SDS011;41604;43.142;20.512;2024-01-30T10:37:09;15.32;;;11.43;;
55700;SDS011;41604;43.142;20.512;2024-01-30T10:39:45;14.80;;;10.18;;
55700;SDS011;41604;43.142;20.512;2024-01-30T10:42:12;16.38;;;10.52;;
55700;SDS011;41604;43.142;20.512;2024-01-30T10:44:43;15.10;;;9.88;;
55700;SDS011;41604;43.142;20.512;2024-01-30T10:47:42;17.48;;;10.55;;
55700;SDS011;41604;43.142;20.512;2024-01-30T10:50:11;16.58;;;11.50;;
55700;SDS011;41604;43.142;20.512;2024-01-30T10:52:37;16.60;;;11.38;;
55700;SDS011;41604;43.142;20.512;2024-01-30T10:55:04;12.88;;;8.95;;
55700;SDS011;41604;43.142;20.512;2024-01-30T10:57:36;16.58;;;9.90;;
55700;SDS011;41604;43.142;20.512;2024-01-30T11:00:13;17.02;;;11.63;;
55700;SDS011;41604;43.142;20.512;2024-01-30T11:02:44;17.80;;;12.32;;
55700;SDS011;41604;43.142;20.512;2024-01-30T11:05:11;17.67;;;10.90;;
55700;SDS011;41604;43.142;20.512;2024-01-30T11:07:38;18.30;;;10.00;;
55700;SDS011;41604;43.142;20.512;2024-01-30T11:10:06;16.13;;;10.95;;
55700;SDS011;41604;43.142;20.512;2024-01-30T11:12:37;19.92;;;14.18;;
55700;SDS011;41604;43.142;20.512;2024-01-30T11:15:09;14.45;;;10.00;;
55700;SDS011;41604;43.142;20.512;2024-01-30T11:22:51;17.77;;;11.48;;
55700;SDS011;41604;43.142;20.512;2024-01-30T11:25:19;22.80;;;13.43;;
55700;SDS011;41604;43.142;20.512;2024-01-30T11:27:49;20.50;;;11.75;;
55700;SDS011;41604;43.142;20.512;2024-01-30T11:33:02;19.25;;;11.25;;
55700;SDS011;41604;43.142;20.512;2024-01-30T11:35:33;20.50;;;12.95;;
55700;SDS011;41604;43.142;20.512;2024-01-30T11:38:00;17.00;;;9.60;;
55700;SDS011;41604;43.142;20.512;2024-01-30T11:40:30;16.60;;;11.15;;
55700;SDS011;41604;43.142;20.512;2024-01-30T11:42:58;12.57;;;8.38;;
55700;SDS011;41604;43.142;20.512;2024-01-30T11:45:28;13.90;;;9.10;;
55700;SDS011;41604;43.142;20.512;2024-01-30T11:47:57;12.60;;;9.37;;
55700;SDS011;41604;43.142;20.512;2024-01-30T11:50:28;13.55;;;8.45;;
55700;SDS011;41604;43.142;20.512;2024-01-30T11:52:57;12.40;;;9.18;;
55700;SDS011;41604;43.142;20.512;2024-01-30T11:55:24;15.52;;;10.43;;
55700;SDS011;41604;43.142;20.512;2024-01-30T11:57:50;19.58;;;10.52;;
55700;SDS011;41604;43.142;20.512;2024-01-30T12:00:20;16.67;;;11.10;;
55700;SDS011;41604;43.142;20.512;2024-01-30T12:02:52;12.88;;;8.57;;
55700;SDS011;41604;43.142;20.512;2024-01-30T12:05:23;11.73;;;7.95;;
55700;SDS011;41604;43.142;20.512;2024-01-30T12:07:50;13.52;;;9.48;;
55700;SDS011;41604;43.142;20.512;2024-01-30T12:10:16;29.85;;;22.60;;
55700;SDS011;41604;43.142;20.512;2024-01-30T12:12:48;21.02;;;11.85;;
55700;SDS011;41604;43.142;20.512;2024-01-30T12:15:15;12.07;;;7.63;;
55700;SDS011;41604;43.142;20.512;2024-01-30T12:17:41;7.00;;;5.45;;
55700;SDS011;41604;43.142;20.512;2024-01-30T12:20:07;21.42;;;15.88;;
55700;SDS011;41604;43.142;20.512;2024-01-30T12:22:39;11.90;;;8.15;;
55700;SDS011;41604;43.142;20.512;2024-01-30T12:25:10;11.32;;;6.93;;
55700;SDS011;41604;43.142;20.512;2024-01-30T12:27:37;18.77;;;9.50;;
55700;SDS011;41604;43.142;20.512;2024-01-30T12:30:07;13.45;;;8.15;;
55700;SDS011;41604;43.142;20.512;2024-01-30T12:32:34;11.25;;;7.20;;
55700;SDS011;41604;43.142;20.512;2024-01-30T12:35:01;31.33;;;18.67;;
55700;SDS011;41604;43.142;20.512;2024-01-30T12:37:27;46.75;;;27.20;;
55700;SDS011;41604;43.142;20.512;2024-01-30T12:39:54;27.60;;;16.63;;
55700;SDS011;41604;43.142;20.512;2024-01-30T12:42:20;17.92;;;10.80;;
55700;SDS011;41604;43.142;20.512;2024-01-30T12:44:47;12.35;;;8.20;;
55700;SDS011;41604;43.142;20.512;2024-01-30T12:47:14;11.68;;;8.40;;
55700;SDS011;41604;43.142;20.512;2024-01-30T12:49:41;12.68;;;8.23;;
55700;SDS011;41604;43.142;20.512;2024-01-30T12:52:11;19.42;;;9.55;;
55700;SDS011;41604;43.142;20.512;2024-01-30T12:54:39;14.45;;;7.80;;
55700;SDS011;41604;43.142;20.512;2024-01-30T12:57:05;12.77;;;8.38;;
55700;SDS011;41604;43.142;20.512;2024-01-30T12:59:31;16.98;;;8.80;;
55700;SDS011;41604;43.142;20.512;2024-01-30T13:01:58;45.20;;;24.30;;
55700;SDS011;41604;43.142;20.512;2024-01-30T13:04:25;94.53;;;51.90;;
55700;SDS011;41604;43.142;20.512;2024-01-30T13:06:52;33.00;;;20.00;;
55700;SDS011;41604;43.142;20.512;2024-01-30T13:09:17;12.60;;;8.35;;
55700;SDS011;41604;43.142;20.512;2024-01-30T13:11:43;13.85;;;9.57;;
55700;SDS011;41604;43.142;20.512;2024-01-30T13:14:09;22.98;;;16.40;;
55700;SDS011;41604;43.142;20.512;2024-01-30T13:16:35;17.98;;;10.75;;
55700;SDS011;41604;43.142;20.512;2024-01-30T13:19:01;14.13;;;10.00;;
55700;SDS011;41604;43.142;20.512;2024-01-30T13:21:27;25.25;;;15.10;;
55700;SDS011;41604;43.142;20.512;2024-01-30T13:23:54;22.15;;;11.02;;
55700;SDS011;41604;43.142;20.512;2024-01-30T13:26:22;16.27;;;10.20;;
55700;SDS011;41604;43.142;20.512;2024-01-30T13:28:48;22.20;;;11.57;;
55700;SDS011;41604;43.142;20.512;2024-01-30T13:31:14;14.65;;;10.05;;
55700;SDS011;41604;43.142;20.512;2024-01-30T13:33:40;31.48;;;12.32;;
55700;SDS011;41604;43.142;20.512;2024-01-30T13:36:07;15.63;;;10.48;;
55700;SDS011;41604;43.142;20.512;2024-01-30T13:38:34;11.60;;;7.07;;
55700;SDS011;41604;43.142;20.512;2024-01-30T13:41:00;14.73;;;8.20;;
55700;SDS011;41604;43.142;20.512;2024-01-30T13:43:26;12.55;;;9.13;;
55700;SDS011;41604;43.142;20.512;2024-01-30T13:45:52;14.32;;;7.78;;
55700;SDS011;41604;43.142;20.512;2024-01-30T13:48:18;15.77;;;8.65;;
55700;SDS011;41604;43.142;20.512;2024-01-30T13:50:44;13.07;;;9.65;;
55700;SDS011;41604;43.142;20.512;2024-01-30T13:53:11;15.00;;;8.57;;
55700;SDS011;41604;43.142;20.512;2024-01-30T13:55:37;12.88;;;7.75;;
55700;SDS011;41604;43.142;20.512;2024-01-30T13:58:04;12.57;;;7.90;;
55700;SDS011;41604;43.142;20.512;2024-01-30T14:00:30;20.95;;;9.30;;
55700;SDS011;41604;43.142;20.512;2024-01-30T14:02:57;21.77;;;12.82;;
55700;SDS011;41604;43.142;20.512;2024-01-30T14:05:24;27.00;;;15.48;;
55700;SDS011;41604;43.142;20.512;2024-01-30T14:07:50;21.23;;;12.70;;
55700;SDS011;41604;43.142;20.512;2024-01-30T14:10:20;11.27;;;7.60;;
55700;SDS011;41604;43.142;20.512;2024-01-30T14:12:46;25.90;;;14.40;;
55700;SDS011;41604;43.142;20.512;2024-01-30T14:15:13;19.70;;;11.15;;